sensor_id;sensor_type;location;lat;lon;timestamp;P1;durP1;ratioP1;P2;durP2;ratioP2
68315;SDS011;55508;54.368;18.406;2023-10-31T00:00:44;16.02;;;11.38;;
68315;SDS011;55508;54.368;18.406;2023-10-31T00:03:11;21.05;;;12.68;;
68315;SDS011;55508;54.368;18.406;2023-10-31T00:05:39;16.55;;;11.50;;
68315;SDS011;55508;54.368;18.406;2023-10-31T00:08:06;23.15;;;11.30;;
68315;SDS011;55508;54.368;18.406;2023-10-31T00:10:33;17.63;;;11.98;;
68315;SDS011;55508;54.368;18.406;2023-10-31T00:12:59;17.02;;;12.30;;
68315;SDS011;55508;54.368;18.406;2023-10-31T00:15:27;14.93;;;11.25;;
68315;SDS011;55508;54.368;18.406;2023-10-31T00:17:55;17.95;;;14.13;;
68315;SDS011;55508;54.368;18.406;2023-10-31T00:20:22;24.98;;;15.82;;
68315;SDS011;55508;54.368;18.406;2023-10-31T00:22:49;18.45;;;14.93;;
68315;SDS011;55508;54.368;18.406;2023-10-31T00:25:16;21.52;;;15.10;;
68315;SDS011;55508;54.368;18.406;2023-10-31T00:27:43;25.52;;;14.32;;
68315;SDS011;55508;54.368;18.406;2023-10-31T00:30:10;21.48;;;13.70;;
68315;SDS011;55508;54.368;18.406;2023-10-31T00:32:37;19.40;;;13.43;;
68315;SDS011;55508;54.368;18.406;2023-10-31T00:35:05;20.23;;;14.25;;
68315;SDS011;55508;54.368;18.406;2023-10-31T00:37:32;25.13;;;14.10;;
68315;SDS011;55508;54.368;18.406;2023-10-31T00:39:59;24.17;;;15.18;;
68315;SDS011;55508;54.368;18.406;2023-10-31T00:42:26;23.92;;;15.30;;
68315;SDS011;55508;54.368;18.406;2023-10-31T00:44:53;19.10;;;14.85;;
68315;SDS011;55508;54.368;18.406;2023-10-31T00:47:20;21.88;;;14.90;;
68315;SDS011;55508;54.368;18.406;2023-10-31T00:49:49;20.73;;;14.60;;
68315;SDS011;55508;54.368;18.406;2023-10-31T00:52:16;24.70;;;14.73;;
68315;SDS011;55508;54.368;18.406;2023-10-31T00:54:43;21.88;;;15.60;;
68315;SDS011;55508;54.368;18.406;2023-10-31T00:57:10;16.75;;;13.75;;
68315;SDS011;55508;54.368;18.406;2023-10-31T00:59:37;20.98;;;13.70;;
68315;SDS011;55508;54.368;18.406;2023-10-31T01:02:05;19.80;;;15.00;;
68315;SDS011;55508;54.368;18.406;2023-10-31T01:04:32;17.65;;;14.55;;
68315;SDS011;55508;54.368;18.406;2023-10-31T01:06:59;19.05;;;13.85;;
68315;SDS011;55508;54.368;18.406;2023-10-31T01:09:26;19.05;;;14.45;;
68315;SDS011;55508;54.368;18.406;2023-10-31T01:11:53;18.38;;;14.25;;
68315;SDS011;55508;54.368;18.406;2023-10-31T01:14:20;23.23;;;15.80;;
68315;SDS011;55508;54.368;18.406;2023-10-31T01:16:47;25.40;;;15.88;;
68315;SDS011;55508;54.368;18.406;2023-10-31T01:19:14;20.17;;;15.63;;
68315;SDS011;55508;54.368;18.406;2023-10-31T01:21:41;21.75;;;15.98;;
68315;SDS011;55508;54.368;18.406;2023-10-31T01:24:08;18.75;;;15.20;;
68315;SDS011;55508;54.368;18.406;2023-10-31T01:26:36;17.38;;;14.43;;
68315;SDS011;55508;54.368;18.406;2023-10-31T01:29:03;18.83;;;15.70;;
68315;SDS011;55508;54.368;18.406;2023-10-31T01:31:30;22.77;;;15.80;;
68315;SDS011;55508;54.368;18.406;2023-10-31T01:34:04;18.38;;;13.95;;
68315;SDS011;55508;54.368;18.406;2023-10-31T01:36:31;19.70;;;15.55;;
68315;SDS011;55508;54.368;18.406;2023-10-31T01:38:58;24.20;;;16.60;;
68315;SDS011;55508;54.368;18.406;2023-10-31T01:41:26;24.08;;;15.82;;
68315;SDS011;55508;54.368;18.406;2023-10-31T01:43:53;24.55;;;17.20;;
68315;SDS011;55508;54.368;18.406;2023-10-31T01:46:20;23.77;;;17.10;;
68315;SDS011;55508;54.368;18.406;2023-10-31T01:48:47;20.75;;;16.80;;
68315;SDS011;55508;54.368;18.406;2023-10-31T01:51:14;24.75;;;18.20;;
68315;SDS011;55508;54.368;18.406;2023-10-31T01:53:41;27.85;;;18.40;;
68315;SDS011;55508;54.368;18.406;2023-10-31T01:56:08;25.08;;;19.02;;
68315;SDS011;55508;54.368;18.406;2023-10-31T01:58:36;25.08;;;18.65;;
68315;SDS011;55508;54.368;18.406;2023-10-31T02:01:04;26.67;;;19.38;;
68315;SDS011;55508;54.368;18.406;2023-10-31T02:03:31;25.92;;;20.02;;
68315;SDS011;55508;54.368;18.406;2023-10-31T02:06:00;29.02;;;19.33;;
68315;SDS011;55508;54.368;18.406;2023-10-31T02:08:27;26.92;;;20.13;;
68315;SDS011;55508;54.368;18.406;2023-10-31T02:10:54;32.97;;;20.88;;
68315;SDS011;55508;54.368;18.406;2023-10-31T02:13:21;29.50;;;19.65;;
68315;SDS011;55508;54.368;18.406;2023-10-31T02:15:48;29.65;;;20.45;;
68315;SDS011;55508;54.368;18.406;2023-10-31T02:18:15;30.25;;;21.23;;
68315;SDS011;55508;54.368;18.406;2023-10-31T02:20:42;28.40;;;21.98;;
68315;SDS011;55508;54.368;18.406;2023-10-31T02:23:10;33.38;;;21.90;;
68315;SDS011;55508;54.368;18.406;2023-10-31T02:25:37;29.48;;;21.88;;
68315;SDS011;55508;54.368;18.406;2023-10-31T02:28:04;38.17;;;22.52;;
68315;SDS011;55508;54.368;18.406;2023-10-31T02:30:31;37.22;;;24.02;;
68315;SDS011;55508;54.368;18.406;2023-10-31T02:33:00;37.45;;;24.63;;
68315;SDS011;55508;54.368;18.406;2023-10-31T02:35:28;39.95;;;25.70;;
68315;SDS011;55508;54.368;18.406;2023-10-31T02:37:55;39.67;;;25.17;;
68315;SDS011;55508;54.368;18.406;2023-10-31T02:40:22;38.20;;;26.50;;
68315;SDS011;55508;54.368;18.406;2023-10-31T02:42:49;40.58;;;28.45;;
68315;SDS011;55508;54.368;18.406;2023-10-31T02:45:16;44.95;;;30.33;;
68315;SDS011;55508;54.368;18.406;2023-10-31T02:47:44;48.50;;;32.65;;
68315;SDS011;55508;54.368;18.406;2023-10-31T02:50:11;48.95;;;32.15;;
68315;SDS011;55508;54.368;18.406;2023-10-31T02:52:38;56.95;;;32.72;;
68315;SDS011;55508;54.368;18.406;2023-10-31T02:55:05;52.58;;;32.13;;
68315;SDS011;55508;54.368;18.406;2023-10-31T02:57:33;51.22;;;32.50;;
68315;SDS011;55508;54.368;18.406;2023-10-31T03:00:00;51.28;;;33.60;;
68315;SDS011;55508;54.368;18.406;2023-10-31T03:02:28;47.97;;;32.90;;
68315;SDS011;55508;54.368;18.406;2023-10-31T03:04:56;46.97;;;31.95;;
68315;SDS011;55508;54.368;18.406;2023-10-31T03:07:24;52.58;;;33.22;;
68315;SDS011;55508;54.368;18.406;2023-10-31T03:09:51;56.08;;;34.17;;
68315;SDS011;55508;54.368;18.406;2023-10-31T03:12:18;54.60;;;36.97;;
68315;SDS011;55508;54.368;18.406;2023-10-31T03:14:45;55.33;;;33.92;;
68315;SDS011;55508;54.368;18.406;2023-10-31T03:17:12;53.30;;;34.13;;
68315;SDS011;55508;54.368;18.406;2023-10-31T03:19:39;55.17;;;35.42;;
68315;SDS011;55508;54.368;18.406;2023-10-31T03:22:06;57.80;;;35.50;;
68315;SDS011;55508;54.368;18.406;2023-10-31T03:24:33;58.30;;;35.90;;
68315;SDS011;55508;54.368;18.406;2023-10-31T03:27:00;56.33;;;35.97;;
68315;SDS011;55508;54.368;18.406;2023-10-31T03:29:27;58.75;;;35.30;;
68315;SDS011;55508;54.368;18.406;2023-10-31T03:31:54;58.50;;;35.60;;
68315;SDS011;55508;54.368;18.406;2023-10-31T03:34:21;57.58;;;35.30;;
68315;SDS011;55508;54.368;18.406;2023-10-31T03:36:48;61.35;;;35.13;;
68315;SDS011;55508;54.368;18.406;2023-10-31T03:39:15;56.40;;;35.33;;
68315;SDS011;55508;54.368;18.406;2023-10-31T03:41:43;62.80;;;35.88;;
68315;SDS011;55508;54.368;18.406;2023-10-31T03:44:10;60.75;;;34.08;;
68315;SDS011;55508;54.368;18.406;2023-10-31T03:46:38;54.28;;;35.28;;
68315;SDS011;55508;54.368;18.406;2023-10-31T03:49:05;54.28;;;34.15;;
68315;SDS011;55508;54.368;18.406;2023-10-31T03:51:34;58.58;;;36.50;;
68315;SDS011;55508;54.368;18.406;2023-10-31T03:54:01;57.22;;;38.00;;
68315;SDS011;55508;54.368;18.406;2023-10-31T03:56:28;57.95;;;37.97;;
68315;SDS011;55508;54.368;18.406;2023-10-31T03:58:55;55.78;;;33.75;;
68315;SDS011;55508;54.368;18.406;2023-10-31T04:01:22;57.42;;;35.42;;
68315;SDS011;55508;54.368;18.406;2023-10-31T04:03:49;61.20;;;37.33;;
68315;SDS011;55508;54.368;18.406;2023-10-31T04:06:16;56.15;;;37.40;;
68315;SDS011;55508;54.368;18.406;2023-10-31T04:08:43;65.70;;;36.33;;
68315;SDS011;55508;54.368;18.406;2023-10-31T04:11:10;61.67;;;36.90;;
68315;SDS011;55508;54.368;18.406;2023-10-31T04:13:37;55.20;;;34.50;;
68315;SDS011;55508;54.368;18.406;2023-10-31T04:16:04;55.67;;;33.97;;
68315;SDS011;55508;54.368;18.406;2023-10-31T04:18:31;59.30;;;36.42;;
68315;SDS011;55508;54.368;18.406;2023-10-31T04:20:58;57.92;;;34.58;;
68315;SDS011;55508;54.368;18.406;2023-10-31T04:23:25;58.60;;;35.17;;
68315;SDS011;55508;54.368;18.406;2023-10-31T04:25:52;51.47;;;32.95;;
68315;SDS011;55508;54.368;18.406;2023-10-31T04:28:19;58.38;;;35.03;;
68315;SDS011;55508;54.368;18.406;2023-10-31T04:30:46;53.92;;;32.38;;
68315;SDS011;55508;54.368;18.406;2023-10-31T04:33:13;54.17;;;34.03;;
68315;SDS011;55508;54.368;18.406;2023-10-31T04:35:40;50.50;;;34.08;;
68315;SDS011;55508;54.368;18.406;2023-10-31T04:38:07;51.38;;;33.78;;
68315;SDS011;55508;54.368;18.406;2023-10-31T04:40:34;53.97;;;35.45;;
68315;SDS011;55508;54.368;18.406;2023-10-31T04:43:01;60.65;;;35.92;;
68315;SDS011;55508;54.368;18.406;2023-10-31T04:45:28;58.67;;;35.38;;
68315;SDS011;55508;54.368;18.406;2023-10-31T04:47:55;57.45;;;36.35;;
68315;SDS011;55508;54.368;18.406;2023-10-31T04:50:23;57.75;;;37.85;;
68315;SDS011;55508;54.368;18.406;2023-10-31T04:52:50;54.05;;;36.00;;
68315;SDS011;55508;54.368;18.406;2023-10-31T04:55:17;52.38;;;34.92;;
68315;SDS011;55508;54.368;18.406;2023-10-31T04:57:44;54.63;;;35.38;;
68315;SDS011;55508;54.368;18.406;2023-10-31T05:00:11;57.28;;;35.50;;
68315;SDS011;55508;54.368;18.406;2023-10-31T05:02:39;54.90;;;36.10;;
68315;SDS011;55508;54.368;18.406;2023-10-31T05:05:06;58.05;;;34.67;;
68315;SDS011;55508;54.368;18.406;2023-10-31T05:07:33;53.78;;;34.28;;
68315;SDS011;55508;54.368;18.406;2023-10-31T05:10:00;49.15;;;32.90;;
68315;SDS011;55508;54.368;18.406;2023-10-31T05:12:27;50.55;;;32.25;;
68315;SDS011;55508;54.368;18.406;2023-10-31T05:14:54;45.85;;;31.13;;
68315;SDS011;55508;54.368;18.406;2023-10-31T05:17:22;48.72;;;31.80;;
68315;SDS011;55508;54.368;18.406;2023-10-31T05:19:49;50.10;;;32.10;;
68315;SDS011;55508;54.368;18.406;2023-10-31T05:22:16;54.63;;;36.83;;
68315;SDS011;55508;54.368;18.406;2023-10-31T05:24:43;52.45;;;33.42;;
68315;SDS011;55508;54.368;18.406;2023-10-31T05:27:10;45.72;;;31.35;;
68315;SDS011;55508;54.368;18.406;2023-10-31T05:29:38;42.08;;;30.00;;
68315;SDS011;55508;54.368;18.406;2023-10-31T05:32:06;46.92;;;30.38;;
68315;SDS011;55508;54.368;18.406;2023-10-31T05:34:33;46.65;;;29.73;;
68315;SDS011;55508;54.368;18.406;2023-10-31T05:37:00;48.30;;;30.42;;
68315;SDS011;55508;54.368;18.406;2023-10-31T05:39:27;48.47;;;33.33;;
68315;SDS011;55508;54.368;18.406;2023-10-31T05:41:54;47.92;;;31.40;;
68315;SDS011;55508;54.368;18.406;2023-10-31T05:44:21;49.15;;;30.02;;
68315;SDS011;55508;54.368;18.406;2023-10-31T05:46:48;53.55;;;31.73;;
68315;SDS011;55508;54.368;18.406;2023-10-31T05:49:15;47.03;;;31.13;;
68315;SDS011;55508;54.368;18.406;2023-10-31T05:51:42;43.40;;;29.45;;
68315;SDS011;55508;54.368;18.406;2023-10-31T05:54:10;44.53;;;29.52;;
68315;SDS011;55508;54.368;18.406;2023-10-31T05:56:37;45.35;;;30.25;;
68315;SDS011;55508;54.368;18.406;2023-10-31T05:59:04;50.90;;;30.67;;
68315;SDS011;55508;54.368;18.406;2023-10-31T06:01:31;52.38;;;30.15;;
68315;SDS011;55508;54.368;18.406;2023-10-31T06:03:58;46.78;;;29.48;;
68315;SDS011;55508;54.368;18.406;2023-10-31T06:06:25;42.08;;;29.08;;
68315;SDS011;55508;54.368;18.406;2023-10-31T06:08:52;46.75;;;29.75;;
68315;SDS011;55508;54.368;18.406;2023-10-31T06:11:19;45.38;;;29.75;;
68315;SDS011;55508;54.368;18.406;2023-10-31T06:13:46;44.42;;;29.85;;
68315;SDS011;55508;54.368;18.406;2023-10-31T06:16:14;54.72;;;31.58;;
68315;SDS011;55508;54.368;18.406;2023-10-31T06:18:41;47.95;;;29.90;;
68315;SDS011;55508;54.368;18.406;2023-10-31T06:21:08;54.33;;;32.28;;
68315;SDS011;55508;54.368;18.406;2023-10-31T06:23:38;53.55;;;32.42;;
68315;SDS011;55508;54.368;18.406;2023-10-31T06:26:05;51.90;;;32.08;;
68315;SDS011;55508;54.368;18.406;2023-10-31T06:28:33;44.95;;;31.73;;
68315;SDS011;55508;54.368;18.406;2023-10-31T06:31:08;48.50;;;32.35;;
68315;SDS011;55508;54.368;18.406;2023-10-31T06:33:36;49.53;;;33.55;;
68315;SDS011;55508;54.368;18.406;2023-10-31T06:36:03;52.30;;;32.67;;
68315;SDS011;55508;54.368;18.406;2023-10-31T06:38:30;51.83;;;33.22;;
68315;SDS011;55508;54.368;18.406;2023-10-31T06:40:57;50.10;;;32.85;;
68315;SDS011;55508;54.368;18.406;2023-10-31T06:43:24;49.85;;;34.30;;
68315;SDS011;55508;54.368;18.406;2023-10-31T06:45:51;46.88;;;32.78;;
68315;SDS011;55508;54.368;18.406;2023-10-31T06:48:18;47.30;;;32.95;;
68315;SDS011;55508;54.368;18.406;2023-10-31T06:50:45;50.05;;;33.72;;
68315;SDS011;55508;54.368;18.406;2023-10-31T06:53:12;57.97;;;35.47;;
68315;SDS011;55508;54.368;18.406;2023-10-31T06:55:39;53.20;;;34.13;;
68315;SDS011;55508;54.368;18.406;2023-10-31T06:58:06;49.40;;;33.92;;
68315;SDS011;55508;54.368;18.406;2023-10-31T07:00:33;49.65;;;32.50;;
68315;SDS011;55508;54.368;18.406;2023-10-31T07:03:01;49.50;;;32.05;;
68315;SDS011;55508;54.368;18.406;2023-10-31T07:05:33;50.25;;;32.95;;
68315;SDS011;55508;54.368;18.406;2023-10-31T07:08:00;45.92;;;32.55;;
68315;SDS011;55508;54.368;18.406;2023-10-31T07:10:27;46.28;;;31.92;;
68315;SDS011;55508;54.368;18.406;2023-10-31T07:12:54;51.90;;;33.17;;
68315;SDS011;55508;54.368;18.406;2023-10-31T07:15:21;53.05;;;32.80;;
68315;SDS011;55508;54.368;18.406;2023-10-31T07:17:48;49.83;;;32.38;;
68315;SDS011;55508;54.368;18.406;2023-10-31T07:20:15;48.50;;;32.80;;
68315;SDS011;55508;54.368;18.406;2023-10-31T07:22:42;55.35;;;37.50;;
68315;SDS011;55508;54.368;18.406;2023-10-31T07:25:10;80.18;;;56.47;;
68315;SDS011;55508;54.368;18.406;2023-10-31T07:27:37;51.72;;;34.72;;
68315;SDS011;55508;54.368;18.406;2023-10-31T07:30:04;50.83;;;34.90;;
68315;SDS011;55508;54.368;18.406;2023-10-31T07:32:32;52.80;;;39.90;;
68315;SDS011;55508;54.368;18.406;2023-10-31T07:34:59;58.70;;;39.05;;
68315;SDS011;55508;54.368;18.406;2023-10-31T07:37:26;54.58;;;37.25;;
68315;SDS011;55508;54.368;18.406;2023-10-31T07:39:53;48.50;;;35.75;;
68315;SDS011;55508;54.368;18.406;2023-10-31T07:42:20;50.92;;;37.03;;
68315;SDS011;55508;54.368;18.406;2023-10-31T07:44:47;57.55;;;39.83;;
68315;SDS011;55508;54.368;18.406;2023-10-31T07:47:14;52.05;;;34.88;;
68315;SDS011;55508;54.368;18.406;2023-10-31T07:49:41;49.08;;;34.00;;
68315;SDS011;55508;54.368;18.406;2023-10-31T07:52:08;47.30;;;30.50;;
68315;SDS011;55508;54.368;18.406;2023-10-31T07:54:38;42.08;;;31.58;;
68315;SDS011;55508;54.368;18.406;2023-10-31T07:57:06;40.65;;;29.10;;
68315;SDS011;55508;54.368;18.406;2023-10-31T07:59:33;40.30;;;30.50;;
68315;SDS011;55508;54.368;18.406;2023-10-31T08:02:01;38.20;;;28.45;;
68315;SDS011;55508;54.368;18.406;2023-10-31T08:04:29;36.45;;;28.83;;
68315;SDS011;55508;54.368;18.406;2023-10-31T08:06:56;40.17;;;28.15;;
68315;SDS011;55508;54.368;18.406;2023-10-31T08:09:23;39.30;;;28.35;;
68315;SDS011;55508;54.368;18.406;2023-10-31T08:11:50;37.55;;;27.13;;
68315;SDS011;55508;54.368;18.406;2023-10-31T08:14:17;36.38;;;26.67;;
68315;SDS011;55508;54.368;18.406;2023-10-31T08:16:45;37.15;;;26.77;;
68315;SDS011;55508;54.368;18.406;2023-10-31T08:19:12;36.08;;;26.27;;
68315;SDS011;55508;54.368;18.406;2023-10-31T08:21:40;36.10;;;27.13;;
68315;SDS011;55508;54.368;18.406;2023-10-31T08:24:08;34.25;;;24.73;;
68315;SDS011;55508;54.368;18.406;2023-10-31T08:26:35;32.75;;;25.38;;
68315;SDS011;55508;54.368;18.406;2023-10-31T08:29:02;35.83;;;25.30;;
68315;SDS011;55508;54.368;18.406;2023-10-31T08:31:29;33.38;;;25.85;;
68315;SDS011;55508;54.368;18.406;2023-10-31T08:33:56;33.50;;;25.33;;
68315;SDS011;55508;54.368;18.406;2023-10-31T08:36:23;36.10;;;24.05;;
68315;SDS011;55508;54.368;18.406;2023-10-31T08:38:50;29.67;;;23.95;;
68315;SDS011;55508;54.368;18.406;2023-10-31T08:41:17;39.42;;;25.77;;
68315;SDS011;55508;54.368;18.406;2023-10-31T08:43:46;34.00;;;24.73;;
68315;SDS011;55508;54.368;18.406;2023-10-31T08:46:14;39.20;;;25.92;;
68315;SDS011;55508;54.368;18.406;2023-10-31T08:48:41;34.25;;;24.58;;
68315;SDS011;55508;54.368;18.406;2023-10-31T08:51:08;35.53;;;24.58;;
68315;SDS011;55508;54.368;18.406;2023-10-31T08:53:35;32.50;;;25.45;;
68315;SDS011;55508;54.368;18.406;2023-10-31T08:56:02;34.80;;;25.63;;
68315;SDS011;55508;54.368;18.406;2023-10-31T08:58:29;35.65;;;26.35;;
68315;SDS011;55508;54.368;18.406;2023-10-31T09:00:56;40.22;;;26.75;;
68315;SDS011;55508;54.368;18.406;2023-10-31T09:03:23;40.85;;;27.60;;
68315;SDS011;55508;54.368;18.406;2023-10-31T09:05:50;35.03;;;27.40;;
68315;SDS011;55508;54.368;18.406;2023-10-31T09:08:17;37.63;;;28.45;;
68315;SDS011;55508;54.368;18.406;2023-10-31T09:10:45;44.08;;;29.98;;
68315;SDS011;55508;54.368;18.406;2023-10-31T09:13:13;40.53;;;29.30;;
68315;SDS011;55508;54.368;18.406;2023-10-31T09:15:40;39.08;;;28.67;;
68315;SDS011;55508;54.368;18.406;2023-10-31T09:18:08;34.47;;;27.48;;
68315;SDS011;55508;54.368;18.406;2023-10-31T09:20:35;31.27;;;25.10;;
68315;SDS011;55508;54.368;18.406;2023-10-31T09:23:02;31.98;;;24.23;;
68315;SDS011;55508;54.368;18.406;2023-10-31T09:25:29;24.98;;;21.42;;
68315;SDS011;55508;54.368;18.406;2023-10-31T09:27:57;29.10;;;23.85;;
68315;SDS011;55508;54.368;18.406;2023-10-31T09:30:26;23.85;;;20.98;;
68315;SDS011;55508;54.368;18.406;2023-10-31T09:32:53;24.25;;;20.50;;
68315;SDS011;55508;54.368;18.406;2023-10-31T09:35:23;21.92;;;18.67;;
68315;SDS011;55508;54.368;18.406;2023-10-31T09:37:51;21.17;;;19.10;;
68315;SDS011;55508;54.368;18.406;2023-10-31T09:40:19;20.90;;;18.67;;
68315;SDS011;55508;54.368;18.406;2023-10-31T09:42:46;19.95;;;17.85;;
68315;SDS011;55508;54.368;18.406;2023-10-31T09:45:14;20.83;;;18.63;;
68315;SDS011;55508;54.368;18.406;2023-10-31T09:47:41;24.85;;;18.55;;
68315;SDS011;55508;54.368;18.406;2023-10-31T09:50:10;20.13;;;18.05;;
68315;SDS011;55508;54.368;18.406;2023-10-31T09:52:37;19.83;;;17.92;;
68315;SDS011;55508;54.368;18.406;2023-10-31T09:55:05;20.50;;;18.40;;
68315;SDS011;55508;54.368;18.406;2023-10-31T09:57:33;35.75;;;25.85;;
68315;SDS011;55508;54.368;18.406;2023-10-31T10:00:00;21.60;;;17.98;;
68315;SDS011;55508;54.368;18.406;2023-10-31T10:02:35;19.10;;;17.08;;
68315;SDS011;55508;54.368;18.406;2023-10-31T10:05:03;18.65;;;16.75;;
68315;SDS011;55508;54.368;18.406;2023-10-31T10:07:31;16.83;;;15.23;;
68315;SDS011;55508;54.368;18.406;2023-10-31T10:10:00;16.15;;;14.73;;
68315;SDS011;55508;54.368;18.406;2023-10-31T10:12:27;20.75;;;18.55;;
68315;SDS011;55508;54.368;18.406;2023-10-31T10:14:54;18.10;;;16.33;;
68315;SDS011;55508;54.368;18.406;2023-10-31T10:17:22;37.00;;;27.88;;
68315;SDS011;55508;54.368;18.406;2023-10-31T10:22:38;17.02;;;14.10;;
68315;SDS011;55508;54.368;18.406;2023-10-31T10:25:06;23.02;;;20.63;;
68315;SDS011;55508;54.368;18.406;2023-10-31T10:27:33;14.93;;;13.73;;
68315;SDS011;55508;54.368;18.406;2023-10-31T10:30:00;37.53;;;30.02;;
68315;SDS011;55508;54.368;18.406;2023-10-31T10:32:27;65.38;;;56.83;;
68315;SDS011;55508;54.368;18.406;2023-10-31T10:34:55;29.67;;;26.92;;
68315;SDS011;55508;54.368;18.406;2023-10-31T10:37:22;14.50;;;12.20;;
68315;SDS011;55508;54.368;18.406;2023-10-31T10:39:50;9.63;;;8.93;;
68315;SDS011;55508;54.368;18.406;2023-10-31T10:45:01;8.88;;;8.27;;
68315;SDS011;55508;54.368;18.406;2023-10-31T10:47:31;9.10;;;8.50;;
68315;SDS011;55508;54.368;18.406;2023-10-31T10:49:59;11.60;;;9.95;;
68315;SDS011;55508;54.368;18.406;2023-10-31T10:52:29;28.42;;;18.27;;
68315;SDS011;55508;54.368;18.406;2023-10-31T10:55:03;10.68;;;9.68;;
68315;SDS011;55508;54.368;18.406;2023-10-31T10:57:38;10.95;;;10.05;;
68315;SDS011;55508;54.368;18.406;2023-10-31T11:00:28;10.60;;;9.70;;
68315;SDS011;55508;54.368;18.406;2023-10-31T11:02:56;10.48;;;9.63;;
68315;SDS011;55508;54.368;18.406;2023-10-31T11:05:24;13.95;;;12.23;;
68315;SDS011;55508;54.368;18.406;2023-10-31T11:07:51;16.90;;;13.23;;
68315;SDS011;55508;54.368;18.406;2023-10-31T11:10:19;22.15;;;16.17;;
68315;SDS011;55508;54.368;18.406;2023-10-31T11:12:46;20.25;;;15.07;;
68315;SDS011;55508;54.368;18.406;2023-10-31T11:15:15;12.43;;;11.32;;
68315;SDS011;55508;54.368;18.406;2023-10-31T11:17:43;12.43;;;11.32;;
68315;SDS011;55508;54.368;18.406;2023-10-31T11:20:12;12.57;;;11.38;;
68315;SDS011;55508;54.368;18.406;2023-10-31T11:22:44;12.00;;;11.10;;
68315;SDS011;55508;54.368;18.406;2023-10-31T11:25:14;11.23;;;10.20;;
68315;SDS011;55508;54.368;18.406;2023-10-31T11:27:56;9.45;;;8.43;;
68315;SDS011;55508;54.368;18.406;2023-10-31T11:30:28;10.32;;;9.52;;
68315;SDS011;55508;54.368;18.406;2023-10-31T11:32:59;11.80;;;10.80;;
68315;SDS011;55508;54.368;18.406;2023-10-31T11:35:32;11.05;;;10.18;;
68315;SDS011;55508;54.368;18.406;2023-10-31T11:38:01;9.10;;;8.50;;
68315;SDS011;55508;54.368;18.406;2023-10-31T11:40:30;8.88;;;8.18;;
68315;SDS011;55508;54.368;18.406;2023-10-31T11:43:01;9.85;;;8.95;;
68315;SDS011;55508;54.368;18.406;2023-10-31T11:45:33;8.95;;;8.35;;
68315;SDS011;55508;54.368;18.406;2023-10-31T11:48:08;8.68;;;7.95;;
68315;SDS011;55508;54.368;18.406;2023-10-31T11:50:37;9.02;;;8.32;;
68315;SDS011;55508;54.368;18.406;2023-10-31T11:53:14;7.80;;;7.20;;
68315;SDS011;55508;54.368;18.406;2023-10-31T11:55:45;8.30;;;7.60;;
68315;SDS011;55508;54.368;18.406;2023-10-31T11:58:14;7.82;;;7.28;;
68315;SDS011;55508;54.368;18.406;2023-10-31T12:00:42;8.32;;;7.63;;
68315;SDS011;55508;54.368;18.406;2023-10-31T12:03:11;7.60;;;7.10;;
68315;SDS011;55508;54.368;18.406;2023-10-31T12:05:38;6.75;;;6.25;;
68315;SDS011;55508;54.368;18.406;2023-10-31T12:08:05;7.82;;;7.15;;
68315;SDS011;55508;54.368;18.406;2023-10-31T12:10:32;8.52;;;7.80;;
68315;SDS011;55508;54.368;18.406;2023-10-31T12:12:59;8.57;;;7.88;;
68315;SDS011;55508;54.368;18.406;2023-10-31T12:15:26;6.32;;;5.93;;
68315;SDS011;55508;54.368;18.406;2023-10-31T12:17:57;6.63;;;6.03;;
68315;SDS011;55508;54.368;18.406;2023-10-31T12:20:25;6.55;;;6.05;;
68315;SDS011;55508;54.368;18.406;2023-10-31T12:23:02;5.75;;;5.25;;
68315;SDS011;55508;54.368;18.406;2023-10-31T12:25:30;6.70;;;6.10;;
68315;SDS011;55508;54.368;18.406;2023-10-31T12:28:02;5.53;;;5.13;;
68315;SDS011;55508;54.368;18.406;2023-10-31T12:30:29;5.60;;;5.18;;
68315;SDS011;55508;54.368;18.406;2023-10-31T12:32:57;5.07;;;4.78;;
68315;SDS011;55508;54.368;18.406;2023-10-31T12:35:24;4.97;;;4.68;;
68315;SDS011;55508;54.368;18.406;2023-10-31T12:37:52;7.15;;;6.57;;
68315;SDS011;55508;54.368;18.406;2023-10-31T12:40:21;5.80;;;5.40;;
68315;SDS011;55508;54.368;18.406;2023-10-31T12:42:48;5.13;;;4.72;;
68315;SDS011;55508;54.368;18.406;2023-10-31T12:45:17;6.40;;;5.55;;
68315;SDS011;55508;54.368;18.406;2023-10-31T12:47:46;8.70;;;8.13;;
68315;SDS011;55508;54.368;18.406;2023-10-31T12:50:28;7.20;;;6.80;;
68315;SDS011;55508;54.368;18.406;2023-10-31T12:52:55;6.28;;;5.88;;
68315;SDS011;55508;54.368;18.406;2023-10-31T12:55:24;5.78;;;5.38;;
68315;SDS011;55508;54.368;18.406;2023-10-31T12:57:52;6.35;;;5.75;;
68315;SDS011;55508;54.368;18.406;2023-10-31T13:00:20;5.38;;;4.97;;
68315;SDS011;55508;54.368;18.406;2023-10-31T13:02:58;4.70;;;4.30;;
68315;SDS011;55508;54.368;18.406;2023-10-31T13:05:27;4.43;;;4.10;;
68315;SDS011;55508;54.368;18.406;2023-10-31T13:07:56;4.97;;;4.68;;
68315;SDS011;55508;54.368;18.406;2023-10-31T13:10:24;4.75;;;4.35;;
68315;SDS011;55508;54.368;18.406;2023-10-31T13:12:52;4.30;;;4.00;;
68315;SDS011;55508;54.368;18.406;2023-10-31T13:15:20;4.25;;;3.95;;
68315;SDS011;55508;54.368;18.406;2023-10-31T13:17:49;4.28;;;3.97;;
68315;SDS011;55508;54.368;18.406;2023-10-31T13:20:17;4.43;;;4.15;;
68315;SDS011;55508;54.368;18.406;2023-10-31T13:22:45;4.95;;;4.55;;
68315;SDS011;55508;54.368;18.406;2023-10-31T13:25:13;5.07;;;4.68;;
68315;SDS011;55508;54.368;18.406;2023-10-31T13:27:44;5.28;;;4.88;;
68315;SDS011;55508;54.368;18.406;2023-10-31T13:30:13;6.00;;;5.57;;
68315;SDS011;55508;54.368;18.406;2023-10-31T13:32:44;6.00;;;5.50;;
68315;SDS011;55508;54.368;18.406;2023-10-31T13:35:11;5.45;;;5.05;;
68315;SDS011;55508;54.368;18.406;2023-10-31T13:37:40;5.57;;;5.13;;
68315;SDS011;55508;54.368;18.406;2023-10-31T13:40:07;6.05;;;5.55;;
68315;SDS011;55508;54.368;18.406;2023-10-31T13:42:35;6.22;;;5.45;;
68315;SDS011;55508;54.368;18.406;2023-10-31T13:45:03;7.05;;;6.55;;
68315;SDS011;55508;54.368;18.406;2023-10-31T13:47:33;8.82;;;7.22;;
68315;SDS011;55508;54.368;18.406;2023-10-31T13:50:00;7.82;;;7.00;;
68315;SDS011;55508;54.368;18.406;2023-10-31T13:52:28;8.27;;;7.47;;
68315;SDS011;55508;54.368;18.406;2023-10-31T13:54:55;8.32;;;7.50;;
68315;SDS011;55508;54.368;18.406;2023-10-31T13:57:22;12.38;;;8.77;;
68315;SDS011;55508;54.368;18.406;2023-10-31T13:59:49;8.57;;;7.78;;
68315;SDS011;55508;54.368;18.406;2023-10-31T14:02:17;14.20;;;10.57;;
68315;SDS011;55508;54.368;18.406;2023-10-31T14:04:45;13.63;;;11.35;;
68315;SDS011;55508;54.368;18.406;2023-10-31T14:07:14;17.73;;;10.90;;
68315;SDS011;55508;54.368;18.406;2023-10-31T14:09:48;18.15;;;12.00;;
68315;SDS011;55508;54.368;18.406;2023-10-31T14:12:15;23.05;;;12.30;;
68315;SDS011;55508;54.368;18.406;2023-10-31T14:14:42;27.95;;;14.52;;
68315;SDS011;55508;54.368;18.406;2023-10-31T14:17:10;18.13;;;10.23;;
68315;SDS011;55508;54.368;18.406;2023-10-31T14:19:38;10.18;;;8.07;;
68315;SDS011;55508;54.368;18.406;2023-10-31T14:22:07;7.53;;;6.88;;